createdAt,value
2024-04-22T00:02:51.461Z,20.1
2024-04-22T00:12:50.657Z,20.1
2024-04-22T00:22:49.850Z,20.1
2024-04-22T00:32:49.093Z,20.1
2024-04-22T00:42:48.248Z,20.1
2024-04-22T00:52:47.431Z,20.1
2024-04-22T01:02:46.671Z,20.1
2024-04-22T01:12:45.843Z,20
2024-04-22T01:22:45.139Z,20
2024-04-22T01:32:44.317Z,20
2024-04-22T01:42:43.475Z,19.9
2024-04-22T01:52:42.699Z,19.9
2024-04-22T02:02:41.926Z,19.9
2024-04-22T02:12:41.084Z,19.9
2024-04-22T02:22:40.624Z,19.9
2024-04-22T02:32:39.532Z,19.9
2024-04-22T02:42:38.718Z,19.9
2024-04-22T02:52:37.937Z,19.9
2024-04-22T03:03:05.052Z,19.9
2024-04-22T03:13:04.238Z,19.9
2024-04-22T03:23:03.451Z,19.8
2024-04-22T03:33:02.669Z,19.8
2024-04-22T03:43:02.048Z,19.9
2024-04-22T03:53:01.067Z,19.8
2024-04-22T04:03:00.287Z,19.8
2024-04-22T04:12:59.532Z,19.8
2024-04-22T04:22:58.799Z,19.9
2024-04-22T04:32:58.176Z,19.8
2024-04-22T04:42:57.360Z,19.9
2024-04-22T04:52:56.616Z,19.9
2024-04-22T05:02:55.869Z,19.9
2024-04-22T05:12:55.642Z,19.9
2024-04-22T05:22:54.270Z,19.9
2024-04-22T05:32:53.532Z,20.1
2024-04-22T05:42:52.678Z,20.1
2024-04-22T05:52:51.869Z,20.3
2024-04-22T06:02:51.108Z,20.8
2024-04-22T06:12:50.287Z,21.3
2024-04-22T06:22:49.559Z,21.8
2024-04-22T06:32:48.756Z,22.2
2024-04-22T06:42:47.933Z,22.2
2024-04-22T06:52:47.176Z,22.1
2024-04-22T07:02:46.404Z,22.1
2024-04-22T07:12:45.508Z,22
2024-04-22T07:22:44.772Z,22
2024-04-22T07:32:44.029Z,22.3
2024-04-22T07:42:43.139Z,22.6
2024-04-22T07:52:42.414Z,23.1
2024-04-22T08:02:41.607Z,23.5
2024-04-22T08:12:40.724Z,23.9
2024-04-22T08:22:39.981Z,24.1
2024-04-22T08:32:39.202Z,24.3
2024-04-22T08:42:38.402Z,24.4
2024-04-22T08:52:40.524Z,24.4
2024-04-22T09:03:05.335Z,24.4
2024-04-22T09:13:04.583Z,24.4
2024-04-22T09:23:03.798Z,24.5
2024-04-22T09:33:02.950Z,24.5
2024-04-22T09:43:02.062Z,24.4
2024-04-22T09:53:01.336Z,24.4
2024-04-22T10:03:00.623Z,24.4
2024-04-22T10:12:59.663Z,24.3
2024-04-22T10:22:58.928Z,24.1
2024-04-22T10:32:58.227Z,24
2024-04-22T10:42:57.460Z,23.9
2024-04-22T10:52:56.739Z,23.8
2024-04-22T11:02:56.058Z,23.8
2024-04-22T11:12:55.154Z,23.8
2024-04-22T11:22:54.402Z,23.8
2024-04-22T11:32:53.601Z,23.7
2024-04-22T11:42:52.784Z,23.7
2024-04-22T11:52:51.984Z,23.6
2024-04-22T12:02:51.347Z,23.6
2024-04-22T12:12:50.368Z,23.5
2024-04-22T12:22:49.754Z,23.4
2024-04-22T12:32:48.795Z,23.4
2024-04-22T12:42:47.993Z,23.3
2024-04-22T12:52:47.208Z,23.3
2024-04-22T13:02:46.401Z,23.2
2024-04-22T13:12:46.551Z,23.1
2024-04-22T13:22:45.945Z,23
2024-04-22T13:32:45.115Z,22.9
2024-04-22T13:42:46.297Z,22.9
2024-04-22T13:52:44.263Z,22.8
2024-04-22T14:02:42.689Z,22.6
2024-04-22T14:12:41.758Z,22.6
2024-04-22T14:22:40.985Z,22.4
2024-04-22T14:32:40.196Z,22.3
2024-04-22T14:42:39.610Z,22.3
2024-04-22T14:52:38.798Z,22.1
2024-04-22T15:03:05.464Z,22.1
2024-04-22T15:13:04.528Z,22
2024-04-22T15:23:03.750Z,21.9
2024-04-22T15:33:02.959Z,21.9
2024-04-22T15:43:02.153Z,21.8
2024-04-22T15:53:01.354Z,21.8
2024-04-22T16:03:00.659Z,21.8
2024-04-22T16:12:59.824Z,21.7
2024-04-22T16:22:59.131Z,21.6
2024-04-22T16:32:58.443Z,21.6
2024-04-22T16:42:57.716Z,21.6
2024-04-22T16:52:57.025Z,21.6
2024-04-22T17:02:56.263Z,21.5
2024-04-22T17:12:56.738Z,21.5
2024-04-22T17:22:54.728Z,21.4
2024-04-22T17:32:53.911Z,21.4
2024-04-22T17:42:53.094Z,21.4
2024-04-22T17:52:52.300Z,21.3
2024-04-22T18:02:51.536Z,21.3
2024-04-22T18:12:50.686Z,21.3
2024-04-22T18:22:51.027Z,21.2
2024-04-22T18:32:49.224Z,21.2
2024-04-22T18:42:48.322Z,21.1
2024-04-22T18:52:47.560Z,21.1
2024-04-22T19:02:46.755Z,21
2024-04-22T19:12:45.917Z,21
2024-04-22T19:22:45.158Z,21
2024-04-22T19:32:44.365Z,21
2024-04-22T19:42:43.548Z,21
2024-04-22T19:52:42.756Z,21
2024-04-22T20:02:42.003Z,21
2024-04-22T20:12:41.146Z,21
2024-04-22T20:22:40.408Z,20.9
2024-04-22T20:32:39.671Z,20.9
2024-04-22T20:42:38.900Z,20.9
2024-04-22T20:52:38.055Z,20.9
2024-04-22T21:03:04.525Z,20.9
2024-04-22T21:13:03.687Z,20.9
2024-04-22T21:23:02.925Z,20.9
2024-04-22T21:33:11.627Z,20.9
2024-04-22T21:43:01.320Z,20.8
2024-04-22T21:53:00.502Z,20.8
2024-04-22T22:02:59.731Z,20.8
2024-04-22T22:12:58.998Z,20.8
2024-04-22T22:22:58.402Z,20.8
2024-04-22T22:32:57.620Z,20.8
2024-04-22T22:42:56.888Z,20.8
2024-04-22T22:52:56.193Z,20.7
2024-04-22T23:02:55.448Z,20.7
2024-04-22T23:12:54.620Z,20.7
2024-04-22T23:22:53.856Z,20.7
2024-04-22T23:32:53.126Z,20.7
2024-04-22T23:42:52.257Z,20.6
2024-04-22T23:52:51.488Z,20.6
